Time;durP1;ratioP1;P1;durP2;ratioP2;P2;SDS_P1;SDS_P2;PMS_P1;PMS_P2;Temp;Humidity;BMP_temperature;BMP_pressure;BME280_temperature;BME280_humidity;BME280_pressure;Samples;Min_cycle;Max_cycle;Signal;HPM_P1;HPM_P2
2024/01/02 00:00:02;;;;;;;18.80;3.35;;;6.80;99.90;;;;;;4967917;28;20031;-87
2024/01/02 00:02:29;;;;;;;18.35;3.60;;;6.70;99.90;;;;;;4954268;28;20023;-87
2024/01/02 00:04:55;;;;;;;17.75;2.97;;;6.70;99.90;;;;;;4952161;28;20024;-87
2024/01/02 00:07:20;;;;;;;20.38;3.58;;;6.70;99.90;;;;;;4952179;28;20638;-88
2024/01/02 00:09:46;;;;;;;12.95;2.53;;;6.80;99.90;;;;;;4948179;28;20621;-87
2024/01/02 00:12:11;;;;;;;18.25;2.83;;;6.70;99.90;;;;;;4951181;28;20027;-88
2024/01/02 00:14:37;;;;;;;18.75;2.50;;;6.60;99.90;;;;;;4948963;28;20130;-88
2024/01/02 00:17:04;;;;;;;15.75;3.00;;;6.60;99.90;;;;;;4951489;28;20601;-88
2024/01/02 00:19:30;;;;;;;27.70;3.63;;;6.60;99.90;;;;;;4952233;28;20268;-85
2024/01/02 00:21:55;;;;;;;14.93;2.33;;;6.60;99.90;;;;;;4949714;28;20035;-88
2024/01/02 00:24:23;;;;;;;16.60;2.35;;;6.60;99.90;;;;;;4953118;28;20032;-87
2024/01/02 00:26:48;;;;;;;26.93;2.97;;;6.60;99.90;;;;;;5033903;28;20031;-88
2024/01/02 00:29:14;;;;;;;14.00;2.38;;;6.70;99.90;;;;;;4943169;28;20038;-88
2024/01/02 00:31:40;;;;;;;20.40;3.65;;;6.60;99.90;;;;;;5004534;28;20029;-88
2024/01/02 00:34:06;;;;;;;13.80;2.72;;;6.70;99.90;;;;;;4952153;28;20421;-87
2024/01/02 00:36:31;;;;;;;13.10;2.72;;;6.60;99.90;;;;;;4963922;28;20105;-87
2024/01/02 00:38:57;;;;;;;12.05;2.25;;;6.60;99.90;;;;;;4960462;28;20118;-88
2024/01/02 00:41:23;;;;;;;19.77;2.78;;;6.60;99.90;;;;;;4948691;28;20035;-88
2024/01/02 00:43:49;;;;;;;12.27;2.38;;;6.60;99.90;;;;;;4951124;28;20081;-88
2024/01/02 00:46:15;;;;;;;16.00;2.85;;;6.70;99.90;;;;;;4960267;28;20035;-86
2024/01/02 00:48:45;;;;;;;15.18;2.65;;;6.60;99.90;;;;;;4953726;28;20390;-86
2024/01/02 00:51:11;;;;;;;17.45;3.38;;;6.60;99.90;;;;;;4943074;28;20046;-87
2024/01/02 00:53:37;;;;;;;17.27;2.85;;;6.60;99.90;;;;;;4934118;28;20647;-88
2024/01/02 00:56:04;;;;;;;21.27;2.78;;;6.50;99.90;;;;;;4949286;28;20035;-87
2024/01/02 00:58:31;;;;;;;11.70;2.20;;;6.60;99.90;;;;;;4958656;28;20607;-88
2024/01/02 01:00:56;;;;;;;24.45;3.20;;;6.60;99.90;;;;;;4951038;28;20027;-88
2024/01/02 01:03:22;;;;;;;24.35;3.08;;;6.50;99.90;;;;;;4957892;28;20529;-87
2024/01/02 01:05:47;;;;;;;21.77;3.05;;;6.50;99.90;;;;;;4953570;28;20097;-88
2024/01/02 01:08:13;;;;;;;7.80;1.88;;;6.60;99.90;;;;;;4947506;28;20049;-87
2024/01/02 01:10:38;;;;;;;23.65;2.75;;;6.60;99.90;;;;;;4951405;28;20023;-87
2024/01/02 01:13:04;;;;;;;10.52;2.05;;;6.60;99.90;;;;;;4945170;28;20045;-87
2024/01/02 01:15:32;;;;;;;16.40;2.53;;;6.70;99.90;;;;;;4950546;28;20027;-87
2024/01/02 01:17:58;;;;;;;18.40;2.67;;;6.60;99.90;;;;;;4954306;28;20582;-87
2024/01/02 01:20:23;;;;;;;20.80;2.55;;;6.60;99.90;;;;;;4946819;28;20115;-87
2024/01/02 01:22:49;;;;;;;13.07;2.38;;;6.60;99.90;;;;;;4949944;28;20500;-88
2024/01/02 01:25:17;;;;;;;15.38;2.85;;;6.70;99.90;;;;;;4947744;28;20063;-88
2024/01/02 01:27:51;;;;;;;18.77;2.45;;;6.60;99.90;;;;;;4950481;28;20032;-87
2024/01/02 01:30:18;;;;;;;14.60;3.15;;;6.60;99.90;;;;;;4938257;29;20732;-86
2024/01/02 01:32:46;;;;;;;12.35;2.03;;;6.50;99.90;;;;;;4950538;28;20043;-86
2024/01/02 01:35:12;;;;;;;13.10;2.40;;;6.60;99.90;;;;;;4950806;28;20031;-86
2024/01/02 01:37:37;;;;;;;12.00;1.77;;;6.60;99.90;;;;;;4972450;28;20034;-87
2024/01/02 01:40:03;;;;;;;9.57;1.88;;;6.80;99.90;;;;;;4953954;28;20035;-88
2024/01/02 01:42:29;;;;;;;15.32;2.83;;;6.70;99.90;;;;;;4961132;28;20046;-87
2024/01/02 01:44:55;;;;;;;12.73;2.33;;;6.60;99.90;;;;;;4948351;28;20146;-87
2024/01/02 01:47:20;;;;;;;26.27;2.50;;;6.70;99.90;;;;;;4935650;28;20039;-86
2024/01/02 01:49:46;;;;;;;15.82;2.50;;;6.70;99.90;;;;;;4951066;28;20442;-87
2024/01/02 01:52:12;;;;;;;15.27;2.45;;;6.70;99.90;;;;;;4951045;28;20031;-87
2024/01/02 01:54:39;;;;;;;18.38;2.25;;;6.70;99.90;;;;;;4965727;28;20061;-86
2024/01/02 01:57:06;;;;;;;11.00;2.08;;;6.70;99.90;;;;;;4951877;28;20035;-87
2024/01/02 01:59:32;;;;;;;11.27;1.98;;;6.70;99.90;;;;;;4933213;28;20032;-87
2024/01/02 02:01:59;;;;;;;18.23;2.13;;;6.80;99.90;;;;;;4951511;28;21180;-87
2024/01/02 02:04:27;;;;;;;12.65;2.17;;;6.70;99.90;;;;;;4947547;28;20036;-88
2024/01/02 02:06:52;;;;;;;10.75;1.85;;;6.70;99.90;;;;;;4967741;28;20034;-89
2024/01/02 02:09:18;;;;;;;10.50;1.98;;;6.80;99.90;;;;;;4949777;28;20026;-88
2024/01/02 02:11:44;;;;;;;10.85;2.25;;;6.80;99.90;;;;;;4953300;28;20031;-88
2024/01/02 02:14:11;;;;;;;24.73;2.55;;;6.90;99.90;;;;;;4949675;28;20039;-89
2024/01/02 02:16:40;;;;;;;16.08;2.55;;;6.70;99.90;;;;;;4941144;28;20452;-87
2024/01/02 02:19:05;;;;;;;21.65;2.30;;;6.70;99.90;;;;;;5033506;28;20027;-88
2024/01/02 02:21:33;;;;;;;16.50;2.33;;;6.80;99.90;;;;;;4922868;28;20529;-89
2024/01/02 02:23:59;;;;;;;12.98;2.30;;;6.80;99.90;;;;;;4961158;28;20534;-89
2024/01/02 02:26:25;;;;;;;11.75;2.15;;;6.70;99.90;;;;;;4967276;28;20062;-89
2024/01/02 02:28:50;;;;;;;13.18;1.70;;;6.80;99.90;;;;;;4934158;28;20058;-89
2024/01/02 02:31:18;;;;;;;11.63;2.28;;;6.70;99.90;;;;;;4955921;28;20034;-88
2024/01/02 02:33:43;;;;;;;15.30;2.57;;;6.70;99.90;;;;;;4957183;28;20486;-88
2024/01/02 02:36:09;;;;;;;15.35;2.38;;;6.70;99.90;;;;;;4952325;28;20063;-89
2024/01/02 02:38:35;;;;;;;11.65;1.65;;;6.70;99.90;;;;;;4972056;28;20022;-88
2024/01/02 02:41:01;;;;;;;13.52;2.17;;;6.80;99.90;;;;;;4949203;28;20019;-88
2024/01/02 02:43:26;;;;;;;12.65;2.15;;;6.70;99.90;;;;;;4958203;28;20027;-88
2024/01/02 02:45:52;;;;;;;13.77;2.60;;;6.80;99.90;;;;;;4935114;29;20039;-88
2024/01/02 02:48:17;;;;;;;15.48;1.98;;;6.70;99.90;;;;;;4949810;28;20410;-88
2024/01/02 02:50:43;;;;;;;19.70;2.20;;;6.80;99.90;;;;;;4951817;28;20035;-86
2024/01/02 02:53:09;;;;;;;10.77;2.10;;;6.80;99.90;;;;;;4961555;28;20655;-87
2024/01/02 02:55:34;;;;;;;16.02;2.67;;;6.80;99.90;;;;;;4952246;28;20135;-88
2024/01/02 02:58:00;;;;;;;10.95;1.63;;;6.80;99.90;;;;;;4947886;28;20049;-89
2024/01/02 03:00:25;;;;;;;13.40;2.20;;;6.80;99.90;;;;;;4950633;28;20027;-86
2024/01/02 03:02:56;;;;;;;14.43;1.80;;;7.00;99.90;;;;;;4929368;29;20042;-89
2024/01/02 03:05:22;;;;;;;5.95;1.63;;;6.90;99.90;;;;;;4949927;28;20023;-87
2024/01/02 03:07:48;;;;;;;18.08;1.95;;;7.00;99.90;;;;;;4947084;28;20028;-86
2024/01/02 03:10:17;;;;;;;12.55;2.03;;;7.00;99.90;;;;;;4950108;28;20035;-88
2024/01/02 03:12:44;;;;;;;11.45;1.95;;;7.00;99.90;;;;;;4948437;28;20043;-86
2024/01/02 03:15:09;;;;;;;11.60;2.22;;;7.00;99.90;;;;;;4944202;28;20035;-88
2024/01/02 03:17:35;;;;;;;11.77;2.15;;;7.00;99.90;;;;;;4952178;28;20138;-88
2024/01/02 03:20:02;;;;;;;12.00;1.90;;;7.00;99.90;;;;;;4947288;28;20030;-88
2024/01/02 03:22:28;;;;;;;11.73;2.40;;;7.00;99.90;;;;;;4944024;28;20114;-88
2024/01/02 03:24:53;;;;;;;10.40;1.98;;;7.00;99.90;;;;;;4944077;28;20119;-88
2024/01/02 03:27:22;;;;;;;6.68;1.75;;;7.10;99.90;;;;;;4950005;28;20317;-89
2024/01/02 03:29:50;;;;;;;14.98;2.28;;;7.10;99.90;;;;;;4942158;28;20406;-89
2024/01/02 03:32:15;;;;;;;9.88;1.77;;;7.10;99.90;;;;;;4963105;28;20122;-88
2024/01/02 03:34:42;;;;;;;7.47;1.70;;;7.10;99.90;;;;;;4943156;29;20593;-89
2024/01/02 03:37:08;;;;;;;9.93;1.48;;;7.10;99.90;;;;;;4954947;28;20039;-88
2024/01/02 03:39:34;;;;;;;9.50;1.42;;;7.20;99.90;;;;;;4949466;28;20734;-88
2024/01/02 03:41:59;;;;;;;14.32;1.65;;;7.10;99.90;;;;;;4951067;28;20023;-89
2024/01/02 03:44:25;;;;;;;10.65;1.95;;;7.30;99.90;;;;;;4944451;28;20034;-89
2024/01/02 03:46:51;;;;;;;14.18;1.83;;;7.20;99.90;;;;;;4943732;28;20027;-89
2024/01/02 03:49:17;;;;;;;13.20;1.42;;;7.20;99.90;;;;;;4947296;28;20031;-88
2024/01/02 03:51:43;;;;;;;9.60;2.42;;;7.30;99.90;;;;;;4945110;28;20035;-87
2024/01/02 03:54:10;;;;;;;11.60;1.88;;;7.30;99.90;;;;;;4947725;28;20023;-90
2024/01/02 03:56:38;;;;;;;10.40;1.40;;;7.30;99.90;;;;;;4961706;28;20057;-89
2024/01/02 03:59:04;;;;;;;4.38;1.55;;;7.40;99.90;;;;;;4946160;28;20085;-88
2024/01/02 04:01:29;;;;;;;8.75;1.73;;;7.30;99.90;;;;;;4968492;28;20039;-89
2024/01/02 04:03:55;;;;;;;9.27;2.00;;;7.40;99.90;;;;;;4962439;28;20081;-88
2024/01/02 04:06:21;;;;;;;18.80;2.33;;;7.30;99.90;;;;;;4946269;28;20572;-89
2024/01/02 04:08:47;;;;;;;12.80;2.00;;;7.30;99.90;;;;;;4964467;28;20084;-88
2024/01/02 04:11:13;;;;;;;9.85;2.03;;;7.40;99.90;;;;;;4950397;28;20243;-89
2024/01/02 04:13:39;;;;;;;8.70;1.67;;;7.30;99.90;;;;;;4947530;28;20027;-87
2024/01/02 04:16:05;;;;;;;20.20;1.70;;;7.30;99.90;;;;;;4950953;28;20160;-89
2024/01/02 04:18:31;;;;;;;12.30;1.55;;;7.40;99.90;;;;;;4957182;28;20134;-89
2024/01/02 04:21:00;;;;;;;10.18;1.48;;;7.40;99.90;;;;;;4950603;28;20036;-89
2024/01/02 04:23:25;;;;;;;8.18;1.52;;;7.50;99.90;;;;;;4950035;28;20745;-89
2024/01/02 04:25:51;;;;;;;3.85;1.48;;;7.40;99.90;;;;;;4950897;28;20042;-88
2024/01/02 04:28:16;;;;;;;8.43;1.48;;;7.50;99.90;;;;;;4950415;28;20030;-89
2024/01/02 04:30:42;;;;;;;9.18;1.83;;;7.50;99.90;;;;;;4950440;28;20494;-88
2024/01/02 04:33:07;;;;;;;10.40;2.38;;;7.50;99.90;;;;;;4971710;28;20114;-89
2024/01/02 04:35:33;;;;;;;6.97;1.77;;;7.50;99.90;;;;;;4945160;28;20031;-88
2024/01/02 04:37:59;;;;;;;13.40;2.03;;;7.60;99.90;;;;;;4947591;28;20027;-87
2024/01/02 04:40:24;;;;;;;11.23;1.80;;;7.50;99.90;;;;;;4939419;28;20633;-88
2024/01/02 04:42:50;;;;;;;9.55;1.67;;;7.50;99.90;;;;;;4953799;28;20035;-89
2024/01/02 04:45:16;;;;;;;9.35;2.20;;;7.50;99.90;;;;;;4944971;28;20119;-88
2024/01/02 04:47:41;;;;;;;9.75;1.52;;;7.60;99.90;;;;;;4961280;28;20385;-87
2024/01/02 04:50:08;;;;;;;11.38;1.73;;;7.60;99.90;;;;;;4947963;28;20122;-88
2024/01/02 04:52:34;;;;;;;14.23;1.75;;;7.60;99.90;;;;;;4950703;28;20039;-90
2024/01/02 04:55:00;;;;;;;7.03;1.45;;;7.40;99.90;;;;;;4948278;28;20089;-88
2024/01/02 04:57:29;;;;;;;15.57;2.97;;;7.60;99.90;;;;;;4947622;28;20027;-89
2024/01/02 04:59:54;;;;;;;7.75;1.30;;;7.50;99.90;;;;;;4950144;28;20032;-89
2024/01/02 05:02:22;;;;;;;9.38;1.55;;;7.60;99.90;;;;;;4944892;28;20587;-89
2024/01/02 05:04:48;;;;;;;;;;;7.60;99.90;;;;;;4952903;28;20089;-87
2024/01/02 05:07:14;;;;;;;10.90;1.40;;;7.50;99.90;;;;;;4956298;28;19914;-88
2024/01/02 05:09:40;;;;;;;7.78;1.27;;;7.60;99.90;;;;;;4944544;28;20035;-88
2024/01/02 05:12:06;;;;;;;9.73;1.33;;;7.60;99.90;;;;;;4954810;28;20043;-87
2024/01/02 05:14:33;;;;;;;6.45;1.85;;;7.60;99.90;;;;;;4948135;28;20057;-87
2024/01/02 05:16:59;;;;;;;11.05;1.92;;;7.60;99.90;;;;;;4946375;28;20027;-87
2024/01/02 05:19:28;;;;;;;9.63;1.42;;;7.50;99.90;;;;;;4951207;28;20039;-89
2024/01/02 05:21:53;;;;;;;6.88;1.70;;;7.60;99.90;;;;;;4932037;28;20061;-88
2024/01/02 05:24:19;;;;;;;8.13;1.55;;;7.60;99.90;;;;;;4947989;28;20494;-89
2024/01/02 05:26:47;;;;;;;11.18;1.90;;;7.60;99.90;;;;;;4952210;28;20039;-88
2024/01/02 05:29:12;;;;;;;;;;;7.60;99.90;;;;;;4960152;28;20125;-90
2024/01/02 05:31:38;;;;;;;13.95;1.70;;;7.60;99.90;;;;;;4972229;28;20405;-89
2024/01/02 05:34:10;;;;;;;7.30;1.27;;;7.60;99.90;;;;;;4952882;28;20059;-89
2024/01/02 05:36:36;;;;;;;4.50;1.00;;;7.60;99.90;;;;;;4949865;28;20042;-90
2024/01/02 05:39:04;;;;;;;4.47;1.33;;;7.60;99.90;;;;;;4957778;28;20035;-90
2024/01/02 05:41:30;;;;;;;;;;;7.60;99.90;;;;;;4948040;28;20030;-89
2024/01/02 05:43:55;;;;;;;6.15;1.20;;;7.60;99.90;;;;;;4952205;28;19910;-89
2024/01/02 05:46:21;;;;;;;4.75;1.13;;;7.50;99.90;;;;;;4952245;28;20033;-90
2024/01/02 05:48:46;;;;;;;9.43;1.50;;;7.50;99.90;;;;;;4935093;28;20527;-90
2024/01/02 05:51:12;;;;;;;7.35;1.67;;;7.60;99.90;;;;;;4949512;28;20518;-89
2024/01/02 05:53:40;;;;;;;3.40;1.00;;;7.60;99.90;;;;;;4949127;28;20062;-89
2024/01/02 05:56:09;;;;;;;12.57;1.83;;;7.50;99.90;;;;;;4952576;28;20028;-88
2024/01/02 05:58:37;;;;;;;3.53;0.98;;;7.50;99.90;;;;;;4952713;28;20650;-90
2024/01/02 06:01:03;;;;;;;;;;;7.50;99.90;;;;;;4979768;28;20039;-90
2024/01/02 06:03:28;;;;;;;7.07;1.35;;;7.50;99.90;;;;;;4975891;28;19968;-91
2024/01/02 06:05:54;;;;;;;6.43;1.63;;;7.60;99.90;;;;;;4948148;28;20636;-90
2024/01/02 06:08:21;;;;;;;5.90;1.10;;;7.50;99.90;;;;;;4973253;28;20033;-89
2024/01/02 06:10:48;;;;;;;3.92;1.35;;;7.50;99.90;;;;;;4954713;28;20125;-89
2024/01/02 06:13:14;;;;;;;6.85;1.83;;;7.50;99.90;;;;;;4947880;28;20040;-89
2024/01/02 06:15:40;;;;;;;2.97;0.65;;;7.50;99.90;;;;;;4954064;28;20050;-90
2024/01/02 06:18:08;;;;;;;5.50;1.58;;;7.50;99.90;;;;;;4949009;28;20102;-90
2024/01/02 06:20:34;;;;;;;7.15;1.45;;;7.50;99.90;;;;;;4961506;28;20027;-90
2024/01/02 06:23:00;;;;;;;3.05;0.75;;;7.50;99.90;;;;;;4944515;28;20108;-90
2024/01/02 06:25:25;;;;;;;4.10;0.90;;;7.60;99.90;;;;;;4942205;28;20157;-90
2024/01/02 06:27:51;;;;;;;3.70;0.90;;;7.60;99.90;;;;;;4956303;28;20043;-90
2024/01/02 06:30:17;;;;;;;1.77;0.70;;;7.60;99.90;;;;;;4947908;28;20031;-90
2024/01/02 06:32:46;;;;;;;1.88;0.55;;;7.50;99.90;;;;;;4951729;28;20685;-90
2024/01/02 06:35:14;;;;;;;3.63;1.50;;;7.50;99.90;;;;;;4951215;28;20046;-90
2024/01/02 06:37:40;;;;;;;2.08;0.98;;;7.50;99.90;;;;;;4952133;28;20510;-91
2024/01/02 06:40:08;;;;;;;2.30;0.60;;;7.50;99.90;;;;;;4937936;28;20063;-89
2024/01/02 06:42:35;;;;;;;1.25;0.70;;;7.50;99.90;;;;;;4940520;29;20043;-90
2024/01/02 06:45:03;;;;;;;2.88;0.40;;;7.50;99.90;;;;;;4952628;28;20050;-90
2024/01/02 06:47:28;;;;;;;4.65;0.70;;;7.50;99.90;;;;;;4979293;28;20162;-89
2024/01/02 06:49:54;;;;;;;0.60;0.32;;;7.50;99.90;;;;;;4951048;28;20039;-90
2024/01/02 06:52:19;;;;;;;0.85;0.30;;;7.40;99.90;;;;;;4956360;28;20027;-91
2024/01/02 06:54:45;;;;;;;1.75;0.55;;;7.40;99.90;;;;;;4936152;28;20120;-90
2024/01/02 06:57:11;;;;;;;4.32;0.55;;;7.40;99.90;;;;;;4961844;28;20032;-89
2024/01/02 06:59:37;;;;;;;2.38;0.77;;;7.40;99.90;;;;;;4948536;29;20023;-90
2024/01/02 07:02:03;;;;;;;3.53;0.40;;;7.40;99.90;;;;;;4963134;28;20729;-90
2024/01/02 07:04:28;;;;;;;3.05;0.60;;;7.40;99.90;;;;;;4964509;28;20026;-90
2024/01/02 07:06:54;;;;;;;1.80;0.40;;;7.40;99.90;;;;;;4979409;28;20030;-91
2024/01/02 07:09:21;;;;;;;0.75;0.17;;;7.40;99.90;;;;;;4959418;28;20031;-92
2024/01/02 07:11:47;;;;;;;1.30;0.30;;;7.30;99.90;;;;;;4963935;28;20434;-92
2024/01/02 07:14:13;;;;;;;0.88;0.20;;;7.40;99.90;;;;;;4941353;28;20027;-91
2024/01/02 07:16:39;;;;;;;2.35;0.30;;;7.30;99.90;;;;;;4948029;28;20045;-92
2024/01/02 07:19:05;;;;;;;2.40;0.40;;;7.20;99.90;;;;;;4957015;28;20027;-91
2024/01/02 07:21:30;;;;;;;2.55;0.50;;;7.30;99.90;;;;;;4952421;28;20077;-91
2024/01/02 07:23:56;;;;;;;1.05;0.50;;;7.30;99.90;;;;;;4975389;28;20027;-92
2024/01/02 07:26:24;;;;;;;1.10;0.50;;;7.30;99.90;;;;;;4973625;28;20092;-92
2024/01/02 07:28:51;;;;;;;2.92;0.32;;;7.20;99.90;;;;;;4964999;28;20032;-92
2024/01/02 07:31:17;;;;;;;2.42;0.20;;;7.30;99.90;;;;;;4965918;28;20021;-92
2024/01/02 07:33:45;;;;;;;1.15;0.22;;;7.10;99.90;;;;;;4953266;28;20072;-92
2024/01/02 07:36:10;;;;;;;3.90;0.35;;;7.10;99.90;;;;;;4947927;28;20533;-91
2024/01/02 07:38:38;;;;;;;0.85;0.20;;;7.10;99.90;;;;;;4950358;28;20035;-92
2024/01/02 07:41:03;;;;;;;0.20;0.13;;;7.10;99.90;;;;;;4950798;28;20027;-91
2024/01/02 07:43:30;;;;;;;0.90;0.30;;;7.10;99.90;;;;;;4945929;28;20122;-92
2024/01/02 07:45:59;;;;;;;0.93;0.20;;;7.20;99.90;;;;;;4950240;28;20063;-92
2024/01/02 07:48:26;;;;;;;0.00;0.00;;;7.00;99.90;;;;;;4953131;28;20036;-92
2024/01/02 07:50:54;;;;;;;1.90;0.22;;;7.00;99.90;;;;;;4950739;28;20026;-91
2024/01/02 07:53:20;;;;;;;1.17;0.38;;;7.00;99.90;;;;;;4952159;28;20043;-91
2024/01/02 07:56:06;;;;;;;1.73;0.35;;;7.00;99.90;;;;;;5100191;27;20401;-67
2024/01/02 07:58:32;;;;;;;2.40;0.25;;;7.00;99.90;;;;;;5090356;28;20339;-68
2024/01/02 08:00:58;;;;;;;0.85;0.20;;;6.90;99.90;;;;;;5097494;28;20111;-69
2024/01/02 08:03:26;;;;;;;1.27;0.20;;;6.90;99.90;;;;;;5100547;28;20055;-68
2024/01/02 08:05:56;;;;;;;0.20;0.10;;;6.90;99.90;;;;;;5095960;28;20084;-69
2024/01/02 08:08:22;;;;;;;0.20;0.20;;;6.90;99.90;;;;;;5097489;28;20177;-68
2024/01/02 08:10:52;;;;;;;1.80;0.30;;;6.90;99.90;;;;;;5091433;28;20024;-69
2024/01/02 08:13:17;;;;;;;0.47;0.28;;;6.90;99.90;;;;;;5093771;28;20028;-69
2024/01/02 08:15:43;;;;;;;1.13;0.28;;;6.80;99.90;;;;;;5099655;28;20028;-69
2024/01/02 08:18:09;;;;;;;0.25;0.10;;;6.80;99.90;;;;;;5093758;28;20023;-68
2024/01/02 08:20:34;;;;;;;1.27;0.30;;;6.80;99.90;;;;;;5094619;28;20032;-69
2024/01/02 08:23:00;;;;;;;0.55;0.10;;;6.80;99.90;;;;;;5096328;28;20133;-69
2024/01/02 08:25:28;;;;;;;0.10;0.10;;;6.70;99.90;;;;;;5094027;28;20402;-69
2024/01/02 08:27:53;;;;;;;;;;;6.70;99.90;;;;;;5095054;28;20060;-69
2024/01/02 08:30:19;;;;;;;3.13;0.20;;;6.70;99.90;;;;;;5095541;28;20352;-69
2024/01/02 08:32:50;;;;;;;0.20;0.20;;;6.70;99.90;;;;;;5100814;28;20030;-69
2024/01/02 08:35:16;;;;;;;3.03;0.35;;;6.70;99.90;;;;;;5099021;28;20031;-69
2024/01/02 08:37:44;;;;;;;1.17;0.22;;;6.70;99.90;;;;;;5098419;28;20032;-68
2024/01/02 08:40:11;;;;;;;0.95;0.28;;;6.70;99.90;;;;;;5100586;28;20027;-69
2024/01/02 08:42:37;;;;;;;1.08;0.20;;;6.70;99.90;;;;;;5089675;28;20032;-68
2024/01/02 08:45:04;;;;;;;0.30;0.20;;;6.70;99.90;;;;;;5095020;28;20039;-69
2024/01/02 08:47:30;;;;;;;0.52;0.30;;;6.70;99.90;;;;;;5093028;28;20191;-69
2024/01/02 08:49:58;;;;;;;0.13;0.13;;;6.60;99.90;;;;;;5098392;28;20108;-69
2024/01/02 08:52:26;;;;;;;;;;;6.60;99.90;;;;;;5091936;28;20272;-69
2024/01/02 08:54:54;;;;;;;0.73;0.20;;;6.60;99.90;;;;;;5093943;28;19919;-69
2024/01/02 08:57:19;;;;;;;;;;;6.50;99.90;;;;;;5097751;28;20024;-68
2024/01/02 08:59:45;;;;;;;0.38;0.13;;;6.60;99.90;;;;;;5094971;28;19912;-69
2024/01/02 09:02:10;;;;;;;0.28;0.20;;;6.50;99.90;;;;;;5099501;28;20627;-69
2024/01/02 09:04:39;;;;;;;0.63;0.38;;;6.50;99.90;;;;;;5083831;28;20031;-69
2024/01/02 09:07:04;;;;;;;0.50;0.30;;;6.50;99.90;;;;;;5085310;28;20028;-69
2024/01/02 09:09:34;;;;;;;0.30;0.30;;;6.50;99.90;;;;;;5081564;28;20032;-69
2024/01/02 09:12:02;;;;;;;0.20;0.20;;;6.40;99.90;;;;;;5081921;28;20035;-69
2024/01/02 09:14:31;;;;;;;;;;;6.50;99.90;;;;;;5080996;28;20028;-69
2024/01/02 09:16:56;;;;;;;0.77;0.30;;;6.40;99.90;;;;;;5076902;28;19957;-69
2024/01/02 09:19:24;;;;;;;0.88;0.20;;;6.40;99.90;;;;;;5075009;28;20020;-69
2024/01/02 09:21:50;;;;;;;;;;;6.40;99.90;;;;;;5084662;28;20024;-69
2024/01/02 09:24:18;;;;;;;0.20;0.15;;;6.40;99.90;;;;;;5081097;28;20294;-69
2024/01/02 09:26:48;;;;;;;0.63;0.30;;;6.40;99.90;;;;;;5083888;28;20264;-69
2024/01/02 09:29:14;;;;;;;1.38;0.28;;;6.30;99.90;;;;;;5085191;28;20049;-69
2024/01/02 09:31:42;;;;;;;0.22;0.22;;;6.30;99.90;;;;;;5084395;28;20062;-69
2024/01/02 09:34:14;;;;;;;0.32;0.22;;;6.30;99.90;;;;;;5085132;28;20078;-69
2024/01/02 09:36:40;;;;;;;0.50;0.32;;;6.40;99.90;;;;;;5086376;28;20052;-69
2024/01/02 09:39:06;;;;;;;0.20;0.20;;;6.40;99.90;;;;;;5069428;28;20058;-69
2024/01/02 09:41:39;;;;;;;0.55;0.20;;;6.40;99.90;;;;;;5080701;28;20406;-69
2024/01/02 09:44:25;;;;;;;0.32;0.22;;;6.30;99.90;;;;;;5077985;28;20123;-69
2024/01/02 09:47:40;;;;;;;0.70;0.40;;;6.40;99.90;;;;;;5082411;28;20286;-69
2024/01/02 09:50:14;;;;;;;0.50;0.30;;;6.40;99.90;;;;;;5079675;28;20047;-69
2024/01/02 09:52:49;;;;;;;0.43;0.30;;;6.40;99.90;;;;;;5067216;28;20497;-69
2024/01/02 09:55:24;;;;;;;0.52;0.30;;;6.40;99.90;;;;;;5081964;28;20182;-69
2024/01/02 09:58:02;;;;;;;1.85;0.38;;;6.40;99.90;;;;;;5081442;28;20024;-70
2024/01/02 10:00:28;;;;;;;;;;;6.50;99.90;;;;;;5078822;28;20028;-70
2024/01/02 10:03:22;;;;;;;1.15;0.32;;;6.50;99.90;;;;;;5082671;28;20037;-70
2024/01/02 10:06:25;;;;;;;1.00;0.20;;;6.50;99.90;;;;;;5073512;28;20111;-70
2024/01/02 10:09:11;;;;;;;2.05;0.28;;;6.50;99.90;;;;;;5079228;28;20032;-70
2024/01/02 10:11:55;;;;;;;0.30;0.20;;;6.50;99.90;;;;;;5080260;28;20033;-70
2024/01/02 10:14:31;;;;;;;2.72;0.32;;;6.60;99.90;;;;;;5079905;28;20036;-70
2024/01/02 10:17:20;;;;;;;0.20;0.20;;;6.60;99.90;;;;;;5078867;28;20039;-69
2024/01/02 10:20:17;;;;;;;0.63;0.20;;;6.60;99.90;;;;;;5082851;28;20563;-70
2024/01/02 10:23:09;;;;;;;1.40;0.20;;;6.60;99.90;;;;;;5079226;28;20075;-70
2024/01/02 10:25:36;;;;;;;0.35;0.30;;;6.70;99.90;;;;;;5077674;28;20515;-70
2024/01/02 10:28:18;;;;;;;0.63;0.25;;;6.70;99.90;;;;;;5083224;28;20054;-70
2024/01/02 10:31:11;;;;;;;0.88;0.30;;;6.70;99.90;;;;;;5084695;28;20072;-70
2024/01/02 10:33:55;;;;;;;1.13;0.43;;;6.70;99.90;;;;;;5084213;28;20081;-70
2024/01/02 10:36:22;;;;;;;0.88;0.50;;;6.80;99.90;;;;;;5081096;28;20040;-70
2024/01/02 10:38:59;;;;;;;0.90;0.50;;;6.80;99.90;;;;;;5087191;28;20250;-70
2024/01/02 10:41:49;;;;;;;0.93;0.80;;;6.80;99.90;;;;;;5079221;28;20052;-70
2024/01/02 10:44:36;;;;;;;2.33;1.02;;;6.90;99.90;;;;;;5079296;28;20384;-70
2024/01/02 10:47:26;;;;;;;1.52;0.95;;;6.90;99.90;;;;;;5085722;28;20035;-70
2024/01/02 10:49:59;;;;;;;1.58;0.70;;;7.00;99.90;;;;;;5059513;28;20127;-70
2024/01/02 10:52:34;;;;;;;0.93;0.57;;;7.00;99.90;;;;;;5061318;28;20021;-70
2024/01/02 10:55:13;;;;;;;1.65;0.57;;;7.10;99.90;;;;;;5053431;28;20296;-70
2024/01/02 10:57:46;;;;;;;1.15;0.80;;;7.10;99.90;;;;;;5060306;28;20050;-70
2024/01/02 11:00:22;;;;;;;0.75;0.60;;;7.10;99.90;;;;;;5063741;28;20028;-70
2024/01/02 11:03:03;;;;;;;0.65;0.52;;;7.20;99.90;;;;;;5065566;28;20027;-70
2024/01/02 11:05:33;;;;;;;1.40;0.60;;;7.20;99.90;;;;;;5050177;28;20024;-70
2024/01/02 11:08:32;;;;;;;1.00;0.75;;;7.20;99.90;;;;;;5052844;28;20178;-70
2024/01/02 11:11:01;;;;;;;1.50;0.63;;;7.20;99.90;;;;;;5057586;28;20112;-70
2024/01/02 11:13:30;;;;;;;4.53;0.75;;;7.30;99.90;;;;;;5059475;28;20021;-70
2024/01/02 11:16:08;;;;;;;1.50;0.80;;;7.30;99.90;;;;;;5052844;28;20025;-70
2024/01/02 11:18:40;;;;;;;1.92;0.75;;;7.40;99.90;;;;;;5056671;28;20384;-70
2024/01/02 11:21:33;;;;;;;1.05;0.45;;;7.40;99.90;;;;;;5050216;28;20021;-70
2024/01/02 11:24:03;;;;;;;0.75;0.43;;;7.40;99.90;;;;;;5050989;28;20041;-70
2024/01/02 11:26:42;;;;;;;0.40;0.40;;;7.50;99.90;;;;;;5061935;28;20494;-70
2024/01/02 11:29:21;;;;;;;0.47;0.47;;;7.50;99.90;;;;;;5059187;28;20040;-70
2024/01/02 11:31:49;;;;;;;1.35;0.50;;;7.60;99.90;;;;;;5048910;28;20037;-73
2024/01/02 11:34:39;;;;;;;1.38;0.30;;;7.60;99.90;;;;;;5054422;28;20032;-72
2024/01/02 11:37:17;;;;;;;2.90;0.50;;;7.70;99.90;;;;;;5055711;28;20519;-71
2024/01/02 11:40:03;;;;;;;0.80;0.40;;;7.80;99.90;;;;;;5052152;28;20518;-71
2024/01/02 11:42:37;;;;;;;1.25;0.50;;;7.80;99.90;;;;;;5058059;28;20032;-72
2024/01/02 11:45:13;;;;;;;0.80;0.52;;;7.90;99.90;;;;;;5060598;28;20556;-71
2024/01/02 11:47:50;;;;;;;1.33;0.40;;;7.90;99.90;;;;;;5056190;28;20055;-71
2024/01/02 11:50:16;;;;;;;0.68;0.50;;;8.00;99.90;;;;;;5058748;28;20309;-71
2024/01/02 11:52:54;;;;;;;1.88;0.50;;;8.10;99.90;;;;;;5058194;28;20459;-71
2024/01/02 11:55:33;;;;;;;1.17;0.40;;;8.10;99.90;;;;;;5059037;28;20037;-71
2024/01/02 11:58:10;;;;;;;0.70;0.40;;;8.20;99.90;;;;;;5057753;28;20027;-71
2024/01/02 12:00:40;;;;;;;0.88;0.65;;;8.20;99.90;;;;;;5050109;28;20586;-71
2024/01/02 12:03:27;;;;;;;1.65;0.65;;;8.20;99.90;;;;;;5056324;28;20529;-71
2024/01/02 12:06:03;;;;;;;0.80;0.50;;;8.30;99.90;;;;;;5051265;28;20036;-71
2024/01/02 12:08:36;;;;;;;0.82;0.50;;;8.30;99.90;;;;;;5053368;28;20075;-71
2024/01/02 12:11:08;;;;;;;0.98;0.68;;;8.40;99.90;;;;;;5057009;28;20304;-72
2024/01/02 12:14:00;;;;;;;1.08;0.90;;;8.50;99.90;;;;;;5055093;28;20025;-71
2024/01/02 12:16:31;;;;;;;2.85;1.10;;;8.40;99.90;;;;;;5057364;28;20029;-71
2024/01/02 12:19:01;;;;;;;1.63;1.00;;;8.50;99.90;;;;;;5060222;28;20086;-71
2024/01/02 12:21:31;;;;;;;4.05;1.40;;;8.50;99.90;;;;;;5057149;28;20025;-71
2024/01/02 12:23:57;;;;;;;2.40;1.60;;;8.50;99.90;;;;;;5041587;28;20039;-71
2024/01/02 12:26:26;;;;;;;2.05;1.42;;;8.60;99.90;;;;;;5055717;28;20267;-71
2024/01/02 12:28:59;;;;;;;3.42;1.58;;;8.70;99.90;;;;;;5057806;28;20028;-71
2024/01/02 12:31:33;;;;;;;2.92;1.35;;;8.80;99.90;;;;;;5062473;28;20070;-71
2024/01/02 12:34:21;;;;;;;3.45;1.50;;;8.80;99.90;;;;;;5061138;28;20512;-71
2024/01/02 12:36:58;;;;;;;2.03;1.40;;;8.80;99.90;;;;;;5048291;28;20101;-71
2024/01/02 12:39:26;;;;;;;3.67;1.45;;;9.00;99.90;;;;;;5058742;28;20086;-72
2024/01/02 12:41:55;;;;;;;1.02;0.93;;;8.90;99.90;;;;;;5055590;28;20483;-72
2024/01/02 12:44:25;;;;;;;2.92;1.38;;;9.00;99.90;;;;;;5064522;28;20036;-71
2024/01/02 12:47:04;;;;;;;2.47;1.60;;;9.00;99.90;;;;;;5048224;22;20424;-71
2024/01/02 12:49:31;;;;;;;1.55;1.40;;;9.10;99.90;;;;;;5025319;28;20037;-71
2024/01/02 12:52:04;;;;;;;1.35;1.15;;;9.10;99.90;;;;;;5018317;28;20034;-72
2024/01/02 12:54:33;;;;;;;2.13;1.60;;;9.10;99.90;;;;;;5028189;28;20025;-71
2024/01/02 12:57:03;;;;;;;2.47;1.60;;;9.20;99.90;;;;;;5025974;28;20033;-71
2024/01/02 12:59:30;;;;;;;1.83;1.48;;;9.30;99.90;;;;;;5019742;28;20133;-72
2024/01/02 13:02:04;;;;;;;3.67;1.50;;;9.30;99.90;;;;;;5023788;28;20025;-71
2024/01/02 13:04:35;;;;;;;3.30;2.13;;;9.30;99.90;;;;;;5028062;28;20071;-72